Time;durP1;ratioP1;P1;durP2;ratioP2;P2;SDS_P1;SDS_P2;PMS_P1;PMS_P2;Temp;Humidity;BMP_temperature;BMP_pressure;BME280_temperature;BME280_humidity;BME280_pressure;Samples;Min_cycle;Max_cycle;Signal;HPM_P1;HPM_P2
2023/01/12 00:02:08;;;;;;;9.10;3.40;;;7.30;99.90;;;;;;5052582;28;20451;-76
2023/01/12 00:04:34;;;;;;;11.60;5.23;;;7.30;99.90;;;;;;5051821;28;20914;-77
2023/01/12 00:07:03;;;;;;;7.33;4.13;;;7.30;99.90;;;;;;5052540;28;20756;-78
2023/01/12 00:09:29;;;;;;;10.57;3.90;;;7.30;99.90;;;;;;5052318;28;20405;-77
2023/01/12 00:11:54;;;;;;;7.67;4.03;;;7.30;99.90;;;;;;5052131;28;20535;-80
2023/01/12 00:14:20;;;;;;;4.90;3.90;;;7.20;99.90;;;;;;5051770;28;20187;-78
2023/01/12 00:16:46;;;;;;;10.70;4.83;;;7.20;99.90;;;;;;5051198;28;20183;-79
2023/01/12 00:19:15;;;;;;;3.90;3.23;;;7.20;99.90;;;;;;5052347;28;20197;-83
2023/01/12 00:24:39;;;;;;;5.80;2.80;;;7.20;99.90;;;;;;5055385;28;20409;-76
2023/01/12 00:27:07;;;;;;;3.03;2.53;;;7.10;99.90;;;;;;5054583;28;20405;-76
2023/01/12 00:29:33;;;;;;;4.83;3.30;;;7.20;99.90;;;;;;5055904;28;20460;-80
2023/01/12 00:31:59;;;;;;;3.80;3.43;;;7.10;99.90;;;;;;5054551;28;20425;-83
2023/01/12 00:34:27;;;;;;;5.13;3.23;;;7.10;99.90;;;;;;5055266;28;20417;-81
2023/01/12 00:36:53;;;;;;;12.53;4.13;;;7.10;99.90;;;;;;5055772;28;20527;-84
2023/01/12 00:39:20;;;;;;;9.13;4.50;;;7.20;99.90;;;;;;5055636;28;20528;-77
2023/01/12 00:47:16;;;;;;;1.20;1.10;;;7.20;99.90;;;;;;5055703;28;20428;-75
2023/01/12 00:49:42;;;;;;;1.20;1.10;;;6.60;99.90;;;;;;5055575;28;20430;-79
2023/01/12 00:52:11;;;;;;;1.10;1.00;;;5.80;99.90;;;;;;5055461;28;20409;-75
2023/01/12 00:54:37;;;;;;;1.20;1.10;;;5.50;99.90;;;;;;5054763;28;20426;-76
2023/01/12 00:57:03;;;;;;;1.03;0.93;;;5.40;99.90;;;;;;5055593;28;20409;-78
2023/01/12 00:59:29;;;;;;;1.20;1.10;;;5.40;99.90;;;;;;5055315;28;20497;-73
2023/01/12 01:01:55;;;;;;;1.30;1.20;;;5.30;99.90;;;;;;5055103;28;20405;-73
2023/01/12 01:04:21;;;;;;;1.13;1.03;;;5.30;99.90;;;;;;5054616;28;20183;-78
2023/01/12 01:06:47;;;;;;;1.20;1.10;;;5.30;99.90;;;;;;5055278;28;20717;-78
2023/01/12 01:09:13;;;;;;;1.30;1.20;;;5.40;99.90;;;;;;5055362;28;20408;-75
2023/01/12 01:11:39;;;;;;;1.27;1.17;;;5.40;99.90;;;;;;5055206;28;20246;-72
2023/01/12 01:14:05;;;;;;;1.10;1.00;;;5.50;99.90;;;;;;5054846;28;20452;-73
2023/01/12 01:16:31;;;;;;;1.20;1.10;;;5.50;99.90;;;;;;5054625;28;20426;-74
2023/01/12 01:18:58;;;;;;;1.20;1.10;;;5.60;99.90;;;;;;5055062;28;20622;-77
2023/01/12 01:21:24;;;;;;;1.10;1.00;;;5.70;99.90;;;;;;5054747;28;20402;-73
2023/01/12 01:23:50;;;;;;;1.10;1.00;;;5.70;99.90;;;;;;5054927;28;20800;-76
2023/01/12 01:26:19;;;;;;;1.20;1.10;;;5.80;99.90;;;;;;5054169;28;20481;-75
2023/01/12 01:28:45;;;;;;;1.10;1.00;;;5.90;99.90;;;;;;5055085;28;20219;-74
2023/01/12 01:31:14;;;;;;;1.13;1.03;;;6.00;99.90;;;;;;5054831;28;20399;-74
2023/01/12 01:33:40;;;;;;;1.13;1.03;;;6.00;99.90;;;;;;5053829;28;20396;-72
2023/01/12 01:36:07;;;;;;;1.10;1.00;;;6.00;99.90;;;;;;5053907;28;20445;-72
2023/01/12 01:38:32;;;;;;;1.27;1.17;;;6.10;99.90;;;;;;5054628;28;20964;-74
2023/01/12 01:40:59;;;;;;;1.20;1.10;;;6.20;99.90;;;;;;5054292;28;20492;-77
2023/01/12 01:43:26;;;;;;;1.20;1.10;;;6.30;99.90;;;;;;5054587;28;20404;-76
2023/01/12 01:45:57;;;;;;;1.20;1.10;;;6.30;99.90;;;;;;5053784;28;20409;-78
2023/01/12 01:48:23;;;;;;;1.20;1.10;;;6.30;99.90;;;;;;5054454;28;20475;-77
2023/01/12 01:51:05;;;;;;;1.20;1.10;;;6.30;99.90;;;;;;5054582;28;20412;-71
2023/01/12 01:53:35;;;;;;;1.20;1.10;;;6.40;99.90;;;;;;5054355;28;20411;-72
2023/01/12 01:56:11;;;;;;;1.20;1.10;;;6.40;99.90;;;;;;5053609;28;20816;-73
2023/01/12 01:58:42;;;;;;;1.20;1.10;;;6.50;99.90;;;;;;5054037;28;20488;-78
2023/01/12 02:01:08;;;;;;;1.20;1.10;;;6.50;99.90;;;;;;5054116;28;20651;-71
2023/01/12 02:03:35;;;;;;;1.07;0.97;;;6.50;99.90;;;;;;5054168;28;20398;-77
2023/01/12 02:06:00;;;;;;;1.10;1.00;;;6.60;99.90;;;;;;5053414;28;20424;-76
2023/01/12 02:08:49;;;;;;;1.10;1.00;;;6.60;99.90;;;;;;5054090;28;20393;-72
2023/01/12 02:17:02;;;;;;;1.20;1.10;;;6.70;99.90;;;;;;5053640;28;20401;-73
2023/01/12 02:19:36;;;;;;;1.13;1.03;;;6.80;99.90;;;;;;5053806;28;20449;-73
2023/01/12 02:22:10;;;;;;;1.20;1.10;;;6.80;99.90;;;;;;5053826;28;20400;-78
2023/01/12 02:24:45;;;;;;;1.10;1.00;;;6.90;99.90;;;;;;5051980;28;20840;-78
2023/01/12 02:27:29;;;;;;;1.13;1.03;;;6.90;99.90;;;;;;5053820;28;20393;-78
2023/01/12 02:30:26;;;;;;;1.10;1.00;;;6.90;99.90;;;;;;5053738;28;20408;-77
2023/01/12 02:33:20;;;;;;;1.10;1.00;;;6.90;99.90;;;;;;5053554;28;20462;-79
2023/01/12 02:36:17;;;;;;;1.10;1.00;;;7.00;99.90;;;;;;5052514;28;20465;-74
2023/01/12 02:38:53;;;;;;;1.10;1.00;;;7.00;99.90;;;;;;5053172;28;20960;-79
2023/01/12 02:44:27;;;;;;;1.20;1.10;;;7.00;99.90;;;;;;5052964;28;20996;-73
2023/01/12 02:46:57;;;;;;;1.10;1.00;;;7.00;99.90;;;;;;5053329;28;20940;-80
2023/01/12 02:49:29;;;;;;;1.10;1.00;;;7.00;99.90;;;;;;5053399;28;20414;-73
2023/01/12 02:52:04;;;;;;;1.10;1.00;;;7.00;99.90;;;;;;5053081;28;20504;-77
2023/01/12 02:54:33;;;;;;;1.70;1.60;;;6.90;99.90;;;;;;5052592;28;20423;-73
2023/01/12 02:57:04;;;;;;;1.10;1.00;;;6.90;99.90;;;;;;5053208;28;20400;-73
2023/01/12 02:59:33;;;;;;;1.10;1.00;;;6.90;99.90;;;;;;5053175;28;20444;-81
2023/01/12 03:02:06;;;;;;;1.10;1.00;;;6.90;99.90;;;;;;5053192;28;20396;-74
2023/01/12 03:04:32;;;;;;;1.20;1.10;;;6.90;99.90;;;;;;5052465;28;20420;-79
2023/01/12 03:06:58;;;;;;;1.10;1.00;;;6.90;99.90;;;;;;5053007;28;20397;-81
2023/01/12 03:09:31;;;;;;;1.10;1.00;;;6.90;99.90;;;;;;5053075;28;20917;-74
2023/01/12 03:12:02;;;;;;;1.10;1.00;;;7.00;99.90;;;;;;5052637;28;20563;-80
2023/01/12 03:14:31;;;;;;;1.00;0.90;;;6.90;99.90;;;;;;5051414;28;20478;-73
2023/01/12 03:16:57;;;;;;;4.00;3.80;;;7.00;99.90;;;;;;5051713;28;20413;-81
2023/01/12 03:19:30;;;;;;;1.00;0.90;;;7.00;99.90;;;;;;5052879;28;20445;-74
2023/01/12 03:22:06;;;;;;;1.03;0.93;;;6.90;99.90;;;;;;5052930;28;20523;-80
2023/01/12 03:24:37;;;;;;;1.10;1.00;;;6.90;99.90;;;;;;5052207;28;20932;-80
2023/01/12 03:27:15;;;;;;;1.10;1.00;;;6.90;99.90;;;;;;5052621;28;20736;-79
2023/01/12 03:29:50;;;;;;;1.10;1.00;;;6.80;99.90;;;;;;5051672;28;20774;-81
2023/01/12 03:32:18;;;;;;;1.00;0.90;;;6.80;99.90;;;;;;5052914;28;20397;-80
2023/01/12 03:34:44;;;;;;;1.20;1.10;;;6.80;99.90;;;;;;5052143;28;20558;-72
2023/01/12 03:37:18;;;;;;;1.10;1.00;;;6.80;99.90;;;;;;5052725;28;20425;-79
2023/01/12 03:40:13;;;;;;;1.00;0.90;;;6.80;99.90;;;;;;5052864;28;20927;-80
2023/01/12 03:43:08;;;;;;;1.00;0.90;;;6.90;99.90;;;;;;5052706;28;20405;-80
2023/01/12 03:45:55;;;;;;;1.10;1.00;;;6.80;99.90;;;;;;5051735;28;20413;-73
2023/01/12 03:48:26;;;;;;;1.00;0.90;;;6.80;99.90;;;;;;5052900;28;20967;-73
2023/01/12 03:51:22;;;;;;;1.10;1.00;;;6.90;99.90;;;;;;5052604;28;20430;-73
2023/01/12 03:53:50;;;;;;;1.07;0.97;;;6.80;99.90;;;;;;5051967;28;20425;-81
2023/01/12 03:56:19;;;;;;;1.10;1.00;;;6.80;99.90;;;;;;5053310;28;20750;-73
2023/01/12 03:58:46;;;;;;;1.00;0.90;;;6.80;99.90;;;;;;5056558;28;20906;-78
2023/01/12 04:01:12;;;;;;;1.10;1.00;;;6.80;99.90;;;;;;5056252;28;20810;-79
2023/01/12 04:03:38;;;;;;;1.00;0.90;;;6.80;99.90;;;;;;5056216;28;20393;-79
2023/01/12 04:06:04;;;;;;;15.57;3.83;;;6.80;99.90;;;;;;5055691;28;20418;-79
2023/01/12 04:08:30;;;;;;;1.10;1.00;;;6.80;99.90;;;;;;5056382;28;20167;-73
2023/01/12 04:10:56;;;;;;;1.10;1.00;;;6.70;99.90;;;;;;5056360;28;20397;-77
2023/01/12 04:13:21;;;;;;;1.00;0.90;;;6.70;99.90;;;;;;5056263;28;20409;-77
2023/01/12 04:15:48;;;;;;;1.00;0.90;;;6.70;99.90;;;;;;5055512;28;20416;-74
2023/01/12 04:18:14;;;;;;;1.10;1.00;;;6.70;99.90;;;;;;5054974;28;20631;-77
2023/01/12 04:20:39;;;;;;;1.10;1.00;;;6.60;99.90;;;;;;5055881;28;20453;-76
2023/01/12 04:23:06;;;;;;;1.17;1.07;;;6.60;99.90;;;;;;5056024;28;20408;-76
2023/01/12 04:25:33;;;;;;;1.00;0.90;;;6.60;99.90;;;;;;5055267;28;20186;-76
2023/01/12 04:28:02;;;;;;;1.00;0.90;;;6.70;99.90;;;;;;5056008;28;20932;-77
2023/01/12 04:30:30;;;;;;;1.00;0.90;;;6.70;99.90;;;;;;5056054;28;20411;-75
2023/01/12 04:32:57;;;;;;;1.40;1.30;;;6.70;99.90;;;;;;5055970;28;20409;-73
2023/01/12 04:35:23;;;;;;;1.10;1.00;;;6.70;99.90;;;;;;5055139;28;20433;-73
2023/01/12 04:37:49;;;;;;;1.10;1.00;;;6.70;99.90;;;;;;5055840;28;20397;-73
2023/01/12 04:40:16;;;;;;;1.10;1.00;;;6.70;99.90;;;;;;5055491;28;20532;-76
2023/01/12 04:43:06;;;;;;;1.10;1.00;;;6.70;99.90;;;;;;5055819;28;20470;-75
2023/01/12 04:45:35;;;;;;;1.00;0.90;;;6.70;99.90;;;;;;5054951;28;20460;-75
2023/01/12 04:48:04;;;;;;;1.10;1.00;;;6.60;99.90;;;;;;5055580;28;20754;-75
2023/01/12 04:50:30;;;;;;;1.10;1.00;;;6.70;99.90;;;;;;5055674;28;20405;-75
2023/01/12 04:52:56;;;;;;;1.10;1.00;;;6.70;99.90;;;;;;5055585;28;20405;-76
2023/01/12 04:55:22;;;;;;;1.17;1.07;;;6.70;99.90;;;;;;5054793;28;20734;-74
2023/01/12 04:57:48;;;;;;;1.10;1.00;;;6.70;99.90;;;;;;5055146;28;20486;-74
2023/01/12 05:00:14;;;;;;;1.10;1.00;;;6.70;99.90;;;;;;5055338;28;20202;-74
2023/01/12 05:02:39;;;;;;;1.10;1.00;;;6.70;99.90;;;;;;5055379;28;20174;-74
2023/01/12 05:05:07;;;;;;;1.00;0.90;;;6.70;99.90;;;;;;5054740;28;20425;-73
2023/01/12 05:07:33;;;;;;;1.10;1.00;;;6.70;99.90;;;;;;5055243;28;20166;-73
2023/01/12 05:12:43;;;;;;;1.20;1.10;;;6.70;99.90;;;;;;5055212;28;20893;-73
2023/01/12 05:15:09;;;;;;;1.20;1.10;;;6.80;99.90;;;;;;5053242;28;20433;-74
2023/01/12 05:17:35;;;;;;;1.20;1.10;;;6.80;99.90;;;;;;5054720;28;20336;-73
2023/01/12 05:20:00;;;;;;;1.10;1.00;;;6.80;99.90;;;;;;5054911;28;20954;-74
2023/01/12 05:22:26;;;;;;;1.03;0.93;;;6.90;99.90;;;;;;5053754;28;20171;-73
2023/01/12 05:24:52;;;;;;;1.10;1.00;;;6.90;99.90;;;;;;5054218;28;20236;-73
2023/01/12 05:27:17;;;;;;;1.10;1.00;;;6.90;99.90;;;;;;5054976;28;20516;-73
2023/01/12 05:29:43;;;;;;;1.10;1.00;;;6.90;99.90;;;;;;5055033;28;20175;-73
2023/01/12 05:32:08;;;;;;;1.10;1.00;;;6.90;99.90;;;;;;5054745;28;20619;-73
2023/01/12 05:34:34;;;;;;;1.10;1.00;;;7.00;99.90;;;;;;5053796;28;20214;-74
2023/01/12 05:37:00;;;;;;;1.17;1.07;;;7.00;99.90;;;;;;5054616;28;20226;-73
2023/01/12 05:39:25;;;;;;;1.20;1.10;;;7.00;99.90;;;;;;5054588;28;20183;-73
2023/01/12 05:44:36;;;;;;;1.10;1.00;;;7.10;99.90;;;;;;5053940;28;20777;-73
2023/01/12 05:47:01;;;;;;;1.20;1.10;;;7.10;99.90;;;;;;5054642;28;20405;-73
2023/01/12 05:49:27;;;;;;;1.20;1.10;;;7.10;99.90;;;;;;5054544;28;20505;-73
2023/01/12 05:51:53;;;;;;;1.20;1.10;;;7.20;99.90;;;;;;5052933;28;20174;-73
2023/01/12 05:54:18;;;;;;;1.20;1.10;;;7.10;99.90;;;;;;5038642;28;20191;-71
2023/01/12 05:56:44;;;;;;;1.20;1.10;;;7.20;99.90;;;;;;5033480;28;20245;-73
2023/01/12 05:59:10;;;;;;;1.20;1.10;;;7.20;99.90;;;;;;5032887;28;20164;-73
2023/01/12 06:01:39;;;;;;;0.87;0.80;;;7.20;99.90;;;;;;5034265;28;20214;-72
2023/01/12 06:04:05;;;;;;;1.10;1.00;;;7.20;99.90;;;;;;5034020;28;20891;-72
2023/01/12 06:06:31;;;;;;;1.00;0.90;;;7.20;99.90;;;;;;5033567;28;20421;-72
2023/01/12 06:08:58;;;;;;;1.10;1.00;;;7.20;99.90;;;;;;5034242;28;20171;-72
2023/01/12 06:14:09;;;;;;;1.10;1.00;;;7.30;99.90;;;;;;5034133;28;20949;-72
2023/01/12 06:16:39;;;;;;;1.20;1.10;;;7.30;99.90;;;;;;5033482;28;20398;-72
2023/01/12 06:19:06;;;;;;;1.10;1.00;;;7.30;99.90;;;;;;5033481;28;20771;-72
2023/01/12 06:21:33;;;;;;;1.10;1.00;;;7.30;99.90;;;;;;5032991;28;20419;-73
2023/01/12 06:23:58;;;;;;;1.20;1.10;;;7.30;99.90;;;;;;5033850;28;20414;-73
2023/01/12 06:26:24;;;;;;;1.00;0.90;;;7.30;99.90;;;;;;5033267;28;20507;-73
2023/01/12 06:28:50;;;;;;;1.10;1.00;;;7.30;99.90;;;;;;5033814;28;20270;-73
2023/01/12 06:31:16;;;;;;;1.10;1.00;;;7.30;99.90;;;;;;5033468;28;20202;-74
2023/01/12 06:33:42;;;;;;;1.00;0.90;;;7.30;99.90;;;;;;5033802;28;20214;-74
2023/01/12 06:36:08;;;;;;;1.10;1.00;;;7.30;99.90;;;;;;5032963;28;20573;-75
2023/01/12 06:38:36;;;;;;;1.10;1.00;;;7.30;99.90;;;;;;5033596;28;20410;-75
2023/01/12 06:41:06;;;;;;;1.10;1.00;;;7.30;99.90;;;;;;5033601;28;20575;-77
2023/01/12 06:43:31;;;;;;;1.10;1.00;;;7.30;99.90;;;;;;5033550;28;20452;-77
2023/01/12 06:45:57;;;;;;;1.20;1.10;;;7.30;99.90;;;;;;5033460;28;20430;-75
2023/01/12 06:48:24;;;;;;;1.20;1.10;;;7.30;99.90;;;;;;5034602;28;20167;-77
2023/01/12 06:50:53;;;;;;;1.20;1.10;;;7.30;99.90;;;;;;5033131;28;20408;-76
2023/01/12 06:53:19;;;;;;;1.30;1.20;;;7.30;99.90;;;;;;5033403;28;20452;-75
2023/01/12 06:55:49;;;;;;;1.20;1.10;;;7.40;99.90;;;;;;5032615;28;20421;-75
2023/01/12 06:58:15;;;;;;;1.20;1.10;;;7.40;99.90;;;;;;5033274;28;20538;-75
2023/01/12 07:00:40;;;;;;;1.10;1.00;;;7.40;99.90;;;;;;5031792;28;20501;-75
2023/01/12 07:03:06;;;;;;;1.10;1.00;;;7.40;99.90;;;;;;5033191;28;20421;-75
2023/01/12 07:05:32;;;;;;;1.10;1.00;;;7.40;99.90;;;;;;5031572;28;20196;-75
2023/01/12 07:07:59;;;;;;;1.10;1.00;;;7.40;99.90;;;;;;5033224;28;20171;-75
2023/01/12 07:10:25;;;;;;;1.10;1.00;;;7.40;99.90;;;;;;5032979;28;20521;-76
2023/01/12 07:12:51;;;;;;;1.20;1.10;;;7.40;99.90;;;;;;5031837;28;20450;-76
2023/01/12 07:15:16;;;;;;;1.20;1.10;;;7.40;99.90;;;;;;5032355;28;20860;-75
2023/01/12 07:17:42;;;;;;;1.10;1.00;;;7.40;99.90;;;;;;5033075;28;20175;-79
2023/01/12 07:20:08;;;;;;;1.10;1.00;;;7.50;99.90;;;;;;5033051;28;20556;-77
2023/01/12 07:22:34;;;;;;;1.00;0.90;;;7.50;99.90;;;;;;5033042;28;20160;-78
2023/01/12 07:25:00;;;;;;;1.10;1.00;;;7.50;99.90;;;;;;5032279;28;20918;-74
2023/01/12 07:27:25;;;;;;;1.20;1.10;;;7.50;99.90;;;;;;5032800;28;20172;-75
2023/01/12 07:29:51;;;;;;;1.10;1.00;;;7.60;99.90;;;;;;5032870;28;20246;-74
2023/01/12 07:32:17;;;;;;;1.10;1.00;;;7.60;99.90;;;;;;5036158;28;20212;-74
2023/01/12 07:34:44;;;;;;;1.10;1.00;;;7.60;99.90;;;;;;5036220;28;20183;-74
2023/01/12 07:37:09;;;;;;;1.00;0.90;;;7.50;99.90;;;;;;5035594;28;20194;-77
2023/01/12 07:39:35;;;;;;;1.10;1.00;;;7.60;1.00;;;;;;5037110;28;20807;-81
2023/01/12 07:44:45;;;;;;;1.10;1.00;;;7.60;1.00;;;;;;5036346;28;20580;-80
2023/01/12 07:47:11;;;;;;;1.00;0.90;;;7.70;1.00;;;;;;5036560;28;20402;-74
2023/01/12 07:49:36;;;;;;;1.10;1.00;;;7.60;1.00;;;;;;5036788;28;20528;-74
2023/01/12 07:52:02;;;;;;;1.10;1.00;;;7.70;1.00;;;;;;5035524;28;20171;-74
2023/01/12 07:54:28;;;;;;;0.90;0.80;;;7.70;1.00;;;;;;5036068;28;20199;-76
2023/01/12 07:56:54;;;;;;;1.10;1.00;;;7.70;1.00;;;;;;5036833;28;20170;-82
2023/01/12 07:59:19;;;;;;;0.90;0.80;;;7.70;1.00;;;;;;5036515;28;20167;-75
2023/01/12 08:01:45;;;;;;;1.00;0.90;;;7.70;1.00;;;;;;5036264;28;20170;-75
2023/01/12 08:04:11;;;;;;;1.20;1.10;;;7.70;1.00;;;;;;5036472;28;20192;-75
2023/01/12 08:06:37;;;;;;;1.10;1.00;;;7.80;1.00;;;;;;5034753;28;20425;-81
2023/01/12 08:09:03;;;;;;;1.00;0.90;;;7.80;1.00;;;;;;5036593;28;20168;-82
2023/01/12 08:11:28;;;;;;;1.07;0.97;;;7.80;1.00;;;;;;5036368;28;20185;-75
2023/01/12 08:13:55;;;;;;;1.10;1.00;;;7.80;1.00;;;;;;5036315;28;20406;-74
2023/01/12 08:16:44;;;;;;;1.10;1.00;;;7.80;1.00;;;;;;5034572;28;20578;-82
2023/01/12 08:19:22;;;;;;;1.10;1.00;;;7.80;1.00;;;;;;5035765;28;20413;-81
2023/01/12 08:21:55;;;;;;;1.00;0.90;;;7.80;1.00;;;;;;5036153;28;20441;-81
2023/01/12 08:24:27;;;;;;;1.10;1.00;;;7.90;1.00;;;;;;5035573;28;20426;-76
2023/01/12 08:26:56;;;;;;;0.90;0.80;;;7.90;1.00;;;;;;5035331;28;20422;-83
2023/01/12 08:29:40;;;;;;;1.20;1.10;;;7.90;1.00;;;;;;5035952;28;20398;-73
2023/01/12 08:32:07;;;;;;;1.10;1.00;;;7.80;1.00;;;;;;5036049;28;20414;-81
2023/01/12 08:34:38;;;;;;;1.10;1.00;;;7.90;1.00;;;;;;5034219;28;20434;-73
2023/01/12 08:37:06;;;;;;;1.10;1.00;;;7.90;1.00;;;;;;5035757;28;20458;-74
2023/01/12 08:39:34;;;;;;;1.00;0.90;;;7.90;1.00;;;;;;5034743;28;20446;-74
2023/01/12 08:42:00;;;;;;;1.10;1.00;;;7.90;1.00;;;;;;5035489;28;20482;-73
2023/01/12 08:44:31;;;;;;;1.00;0.90;;;7.90;1.00;;;;;;5035170;28;20426;-76
2023/01/12 08:46:57;;;;;;;1.00;0.90;;;7.90;1.00;;;;;;5035876;28;20733;-80
2023/01/12 08:49:25;;;;;;;1.00;0.90;;;7.90;1.00;;;;;;5035724;28;20390;-79
2023/01/12 08:51:51;;;;;;;1.20;1.10;;;7.90;1.00;;;;;;5034374;28;20218;-79
2023/01/12 08:54:18;;;;;;;1.20;1.10;;;7.90;1.00;;;;;;5034791;28;20476;-79
2023/01/12 08:56:44;;;;;;;1.00;0.90;;;7.90;1.00;;;;;;5035570;28;20441;-73
2023/01/12 08:59:11;;;;;;;1.00;0.90;;;8.00;1.00;;;;;;5035560;28;20832;-82
2023/01/12 09:01:38;;;;;;;1.10;1.00;;;8.00;1.00;;;;;;5035618;28;20494;-74
2023/01/12 09:04:04;;;;;;;1.00;0.90;;;8.00;1.00;;;;;;5035222;28;20402;-74
2023/01/12 09:06:35;;;;;;;1.00;0.90;;;8.00;1.00;;;;;;5034772;28;20425;-83
2023/01/12 09:09:04;;;;;;;1.10;1.00;;;8.00;1.00;;;;;;5037627;28;20423;-79
2023/01/12 09:11:30;;;;;;;1.00;0.90;;;8.00;1.00;;;;;;5036576;28;20426;-81
2023/01/12 09:13:57;;;;;;;1.10;1.00;;;8.00;1.00;;;;;;5053903;28;20846;-79
2023/01/12 09:16:28;;;;;;;1.00;0.90;;;8.00;1.00;;;;;;5048270;28;20409;-80
2023/01/12 09:18:54;;;;;;;1.10;1.00;;;8.10;1.00;;;;;;5033997;28;20410;-73
2023/01/12 09:21:22;;;;;;;1.00;0.90;;;8.00;1.00;;;;;;5035083;28;20503;-74
2023/01/12 09:23:48;;;;;;;1.00;0.90;;;8.00;1.00;;;;;;5035040;28;20178;-75
2023/01/12 09:26:19;;;;;;;1.10;1.00;;;8.10;1.00;;;;;;5034136;28;20418;-80
2023/01/12 09:28:45;;;;;;;1.20;1.10;;;8.00;1.00;;;;;;5042438;28;20405;-74
2023/01/12 09:31:13;;;;;;;1.00;0.90;;;8.10;1.00;;;;;;5054786;28;20822;-76
2023/01/12 09:33:40;;;;;;;1.20;1.10;;;8.10;1.00;;;;;;5054755;28;20405;-81
2023/01/12 09:36:09;;;;;;;1.10;1.00;;;8.10;1.00;;;;;;5052677;28;20464;-73
2023/01/12 09:38:37;;;;;;;1.20;1.10;;;8.10;1.00;;;;;;5053085;28;20782;-75
2023/01/12 09:41:14;;;;;;;1.00;0.90;;;8.20;1.00;;;;;;5054560;28;20946;-79
2023/01/12 09:46:57;;;;;;;1.10;1.00;;;8.10;1.00;;;;;;5053854;28;20404;-74
2023/01/12 09:49:38;;;;;;;1.10;1.00;;;8.10;1.00;;;;;;5053645;28;20417;-74
2023/01/12 09:52:43;;;;;;;1.20;1.10;;;8.20;1.00;;;;;;5054465;28;20813;-74
2023/01/12 09:55:19;;;;;;;1.10;1.00;;;8.20;1.00;;;;;;5051423;28;21004;-77
2023/01/12 09:58:11;;;;;;;1.10;1.00;;;8.20;1.00;;;;;;5054399;28;20437;-75
2023/01/12 10:00:37;;;;;;;1.10;1.00;;;8.30;1.00;;;;;;5053197;28;20510;-72
2023/01/12 10:03:34;;;;;;;1.00;0.90;;;8.30;1.00;;;;;;5054259;28;20394;-74
2023/01/12 10:06:00;;;;;;;1.10;1.00;;;8.30;1.00;;;;;;5039067;28;20242;-77
2023/01/12 10:08:34;;;;;;;1.07;0.97;;;8.30;1.00;;;;;;5034189;28;20407;-72
2023/01/12 10:11:18;;;;;;;1.00;0.90;;;8.40;1.00;;;;;;5034181;28;20410;-73
2023/01/12 10:13:56;;;;;;;1.10;1.00;;;8.40;1.00;;;;;;5034138;28;20390;-77
2023/01/12 10:16:36;;;;;;;1.10;1.00;;;8.50;1.00;;;;;;5031800;28;20886;-78
2023/01/12 10:19:12;;;;;;;1.20;1.10;;;8.50;1.00;;;;;;5032330;28;20791;-75
2023/01/12 10:21:40;;;;;;;1.10;1.00;;;8.50;1.00;;;;;;5032638;28;20457;-77
2023/01/12 10:24:11;;;;;;;1.07;0.97;;;8.50;1.00;;;;;;5033729;28;20403;-73
2023/01/12 10:26:41;;;;;;;1.00;0.90;;;8.60;1.00;;;;;;5032418;28;20405;-73
2023/01/12 10:29:10;;;;;;;1.07;0.97;;;8.70;1.00;;;;;;5032625;28;20500;-73
2023/01/12 10:31:35;;;;;;;1.00;0.90;;;8.70;1.00;;;;;;5033916;28;20759;-73
2023/01/12 10:34:05;;;;;;;1.10;1.00;;;8.70;1.00;;;;;;5033574;28;20402;-77
2023/01/12 10:36:33;;;;;;;1.00;0.90;;;8.80;1.00;;;;;;5031532;28;20199;-73
2023/01/12 10:39:03;;;;;;;1.00;0.90;;;8.80;1.00;;;;;;5033713;28;20418;-72
2023/01/12 10:41:33;;;;;;;1.00;0.90;;;8.90;1.00;;;;;;5033648;28;20454;-77
2023/01/12 10:44:27;;;;;;;1.00;0.90;;;8.90;1.00;;;;;;5032635;28;20467;-76
2023/01/12 10:47:08;;;;;;;1.00;0.90;;;9.00;1.00;;;;;;5033305;28;20898;-73
2023/01/12 10:49:34;;;;;;;1.07;0.97;;;9.00;1.00;;;;;;5033615;28;20417;-78
2023/01/12 10:52:05;;;;;;;1.00;0.90;;;9.00;1.00;;;;;;5033447;28;20407;-77
2023/01/12 10:54:40;;;;;;;1.00;0.90;;;9.00;1.00;;;;;;5032427;28;20190;-74
2023/01/12 10:57:19;;;;;;;1.00;0.90;;;9.10;1.00;;;;;;5033422;28;20398;-75
2023/01/12 10:59:53;;;;;;;0.90;0.80;;;9.20;1.00;;;;;;5033397;28;20808;-75
2023/01/12 11:02:19;;;;;;;1.00;0.90;;;9.20;1.00;;;;;;5032397;28;20427;-78
2023/01/12 11:04:49;;;;;;;1.10;1.00;;;9.20;1.00;;;;;;5034312;28;20475;-77
2023/01/12 11:07:27;;;;;;;0.90;0.80;;;9.20;1.00;;;;;;5053196;28;20162;-76
2023/01/12 11:09:56;;;;;;;1.00;0.90;;;9.20;1.00;;;;;;5051847;28;20824;-75
2023/01/12 11:12:30;;;;;;;1.00;0.90;;;9.30;1.00;;;;;;5053074;28;20733;-75
2023/01/12 11:15:13;;;;;;;0.90;0.80;;;9.30;1.00;;;;;;5051966;28;20836;-76
2023/01/12 11:18:00;;;;;;;1.00;0.90;;;9.30;1.00;;;;;;5053067;28;20428;-75
2023/01/12 11:20:33;;;;;;;1.10;1.00;;;9.40;1.00;;;;;;5051821;28;20552;-74
2023/01/12 11:23:02;;;;;;;1.10;1.00;;;9.40;1.00;;;;;;5051837;28;20419;-73
2023/01/12 11:25:37;;;;;;;1.10;1.00;;;9.50;1.00;;;;;;5052110;28;20506;-72
2023/01/12 11:28:09;;;;;;;1.03;0.93;;;9.50;1.00;;;;;;5053077;28;20405;-76
2023/01/12 11:30:51;;;;;;;1.00;0.90;;;9.50;1.00;;;;;;5052931;28;20461;-76
2023/01/12 11:33:37;;;;;;;1.00;0.90;;;9.60;1.00;;;;;;5052759;28;20409;-75
2023/01/12 11:36:28;;;;;;;1.00;0.90;;;9.60;1.00;;;;;;5051884;28;20457;-72
2023/01/12 11:39:04;;;;;;;1.00;0.90;;;9.60;1.00;;;;;;5051460;28;20417;-75
2023/01/12 11:44:54;;;;;;;1.00;0.90;;;9.70;1.00;;;;;;5051589;28;20729;-73
2023/01/12 11:47:34;;;;;;;1.00;0.90;;;9.70;1.00;;;;;;5052787;28;20444;-76
2023/01/12 11:50:18;;;;;;;0.90;0.80;;;9.70;1.00;;;;;;5052748;28;20413;-73
2023/01/12 11:52:44;;;;;;;1.00;0.90;;;9.70;1.00;;;;;;5051784;28;20420;-76
2023/01/12 11:55:15;;;;;;;0.90;0.80;;;9.80;1.00;;;;;;5051180;28;20464;-76
2023/01/12 11:57:46;;;;;;;5.13;2.90;;;9.80;1.00;;;;;;5052607;28;20378;-74
2023/01/12 12:00:39;;;;;;;1.00;0.90;;;9.80;1.00;;;;;;5052651;28;20949;-77
2023/01/12 12:03:24;;;;;;;1.00;0.90;;;9.80;1.00;;;;;;5052557;28;20397;-71
2023/01/12 12:06:27;;;;;;;1.00;0.90;;;9.80;1.00;;;;;;5051780;28;20453;-71
2023/01/12 12:08:56;;;;;;;1.00;0.90;;;9.80;1.00;;;;;;5052528;28;20393;-78
2023/01/12 12:11:45;;;;;;;0.90;0.80;;;9.80;1.00;;;;;;5051175;28;20427;-79
2023/01/12 12:14:36;;;;;;;1.00;0.90;;;9.80;1.00;;;;;;5051884;28;20518;-77
2023/01/12 12:17:06;;;;;;;1.10;1.00;;;9.90;1.00;;;;;;5051872;28;20406;-79
2023/01/12 12:20:01;;;;;;;0.80;0.70;;;9.90;1.00;;;;;;5056088;28;20403;-78
2023/01/12 12:22:56;;;;;;;1.10;1.00;;;9.90;1.00;;;;;;5055659;28;20429;-79
2023/01/12 12:25:33;;;;;;;1.00;0.90;;;9.90;1.00;;;;;;5036459;28;21048;-76
2023/01/12 12:28:05;;;;;;;1.00;0.90;;;9.90;1.00;;;;;;5055072;28;20509;-71
2023/01/12 12:31:01;;;;;;;1.00;0.90;;;9.90;1.00;;;;;;5056004;28;20914;-70
2023/01/12 12:33:49;;;;;;;1.00;0.90;;;9.80;1.00;;;;;;5056020;28;20424;-80
2023/01/12 12:36:28;;;;;;;1.00;0.90;;;9.80;1.00;;;;;;5054398;28;20522;-73
2023/01/12 12:39:21;;;;;;;1.00;0.90;;;9.80;99.90;;;;;;5055941;28;20485;-71
2023/01/12 12:47:51;;;;;;;1.00;0.90;;;9.80;99.90;;;;;;5055684;28;20471;-77
2023/01/12 12:50:24;;;;;;;1.10;1.00;;;9.70;99.90;;;;;;5055713;28;20406;-70
2023/01/12 12:53:09;;;;;;;1.10;1.00;;;9.70;99.90;;;;;;5055760;28;20404;-69
2023/01/12 12:55:36;;;;;;;1.10;1.00;;;9.60;99.90;;;;;;5054264;28;20413;-79
2023/01/12 12:58:25;;;;;;;1.00;0.90;;;9.50;99.90;;;;;;5054554;28;20743;-80
2023/01/12 13:00:53;;;;;;;1.10;1.00;;;9.40;99.90;;;;;;5055446;28;20452;-70
2023/01/12 13:03:42;;;;;;;1.10;1.00;;;9.30;99.90;;;;;;5052498;28;20451;-72
2023/01/12 13:06:30;;;;;;;1.10;1.00;;;9.20;99.90;;;;;;5053854;28;20438;-70
2023/01/12 13:08:59;;;;;;;1.10;1.00;;;9.10;99.90;;;;;;5039310;28;20422;-76
2023/01/12 13:11:53;;;;;;;1.00;0.90;;;9.10;99.90;;;;;;5035419;28;20898;-71
2023/01/12 13:14:20;;;;;;;1.00;0.90;;;9.00;99.90;;;;;;5034958;28;20438;-75
2023/01/12 13:16:50;;;;;;;1.10;1.00;;;9.00;99.90;;;;;;5041596;28;20425;-76
2023/01/12 13:19:41;;;;;;;1.17;1.07;;;9.10;99.90;;;;;;5053873;28;20409;-70
2023/01/12 13:22:41;;;;;;;1.20;1.10;;;9.10;99.90;;;;;;5049246;28;20968;-70
2023/01/12 13:25:19;;;;;;;1.03;0.93;;;9.00;99.90;;;;;;5050570;28;20432;-71
2023/01/12 13:28:09;;;;;;;1.00;0.90;;;9.00;99.90;;;;;;5053741;28;20405;-71
2023/01/12 13:30:47;;;;;;;1.00;0.90;;;9.00;99.90;;;;;;5054198;28;20451;-76
2023/01/12 13:33:15;;;;;;;1.10;1.00;;;9.00;99.90;;;;;;5044257;28;20942;-76
2023/01/12 13:35:45;;;;;;;1.10;1.00;;;9.00;99.90;;;;;;5032555;28;20465;-76
2023/01/12 13:38:37;;;;;;;1.00;0.90;;;8.90;99.90;;;;;;5042999;28;20475;-75
2023/01/12 13:41:08;;;;;;;1.10;1.00;;;9.00;99.90;;;;;;5047621;28;20974;-75
2023/01/12 13:43:38;;;;;;;0.83;0.80;;;9.00;99.90;;;;;;5048709;28;20409;-76
2023/01/12 13:46:13;;;;;;;1.10;1.00;;;9.00;99.90;;;;;;5047126;28;20464;-71
2023/01/12 13:48:44;;;;;;;1.00;0.90;;;9.00;99.90;;;;;;5033214;28;20406;-75
2023/01/12 13:51:37;;;;;;;1.00;0.90;;;9.00;99.90;;;;;;5035347;28;20891;-75
2023/01/12 13:54:12;;;;;;;1.00;0.90;;;9.00;99.90;;;;;;5033802;28;20970;-75
2023/01/12 13:56:38;;;;;;;1.10;1.00;;;9.00;99.90;;;;;;5050986;28;20918;-71
2023/01/12 13:59:06;;;;;;;1.10;1.00;;;9.00;99.90;;;;;;5034705;28;20908;-75
2023/01/12 14:01:36;;;;;;;1.00;0.90;;;9.00;99.90;;;;;;5050217;28;20489;-74
2023/01/12 14:04:14;;;;;;;1.00;0.90;;;9.00;99.90;;;;;;5054026;28;20409;-74